Ocean Navigator — WSC2552 — position and weather

sailwx.info

Track history (hours):
 
Tides and Currents Weather Stations Pressure Air Temp Water Temp Dewpoint Dewpoint Depression Visibility Wind Speed Wind Dir Waves Ship Positions

Ocean Navigator

Owner: OCEAN NAVIGATOR INC, SEATTLE, WA. More information available from US FCC via Universal Licensing System and Coast Guard Vessel Documentation Center.

Last reported at 2016-Sep-23 00:33 UTC. Time now 2016-Sep-26 05:26 UTC.
Position N 47°40' W 122°24'.

Type: Tug. MMSI: 366358000.

Date/timePositionNaut miles runAvg speedWind from/ knotsBaromVisibWave heightAir tempDewpointWater temp
2016-Sep-23 00:33N 47°40' W 122°24'2 1.5
2016-Sep-22 23:33N 47°41' W 122°25'13 4.5
2016-Sep-22 20:33N 47°52' W 122°37'0 0.0
2016-Sep-22 12:33N 47°52' W 122°37'0 0.0
2016-Sep-22 04:33N 47°52' W 122°37'0 0.0
2016-Sep-22 03:33N 47°52' W 122°37'0 0.0
2016-Sep-22 00:32N 47°52' W 122°37'0 0.0
2016-Sep-21 23:33N 47°52' W 122°37'0 0.0
2016-Sep-21 22:33N 47°52' W 122°37'0 0.0
2016-Sep-21 19:33N 47°52' W 122°37'0 0.0
2016-Sep-21 16:33N 47°52' W 122°37'0 0.0
2016-Sep-21 09:33N 47°52' W 122°37'0 0.0
2016-Sep-21 08:33N 47°52' W 122°37'0 0.0
2016-Sep-21 05:33N 47°52' W 122°37'0 0.0
2016-Sep-21 03:33N 47°52' W 122°37'0 0.0
2016-Sep-21 02:33N 47°52' W 122°37'0 0.0
2016-Sep-20 17:33N 47°52' W 122°37'0 0.0
2016-Sep-20 14:33N 47°52' W 122°37'0 0.0
2016-Sep-20 13:33N 47°52' W 122°37'0 0.0
2016-Sep-20 10:33N 47°52' W 122°37'0 0.0
2016-Sep-20 08:33N 47°52' W 122°37'0 0.0
2016-Sep-20 07:33N 47°52' W 122°37'0 0.0
2016-Sep-20 06:33N 47°52' W 122°37'0 0.0
2016-Sep-20 02:33N 47°52' W 122°37'0 0.0
2016-Sep-19 23:33N 47°52' W 122°37'0 0.0
2016-Sep-19 19:33N 47°52' W 122°37'0 0.2
2016-Sep-19 18:33N 47°51' W 122°38'0 0.1
2016-Sep-19 16:33N 47°52' W 122°37'1 0.4
2016-Sep-19 14:33N 47°52' W 122°37'5 5.4
2016-Sep-19 13:33N 47°57' W 122°32'1110.8
2016-Sep-19 12:33N 47°47' W 122°26'7 7.4
2016-Sep-19 11:33N 47°40' W 122°23'1 0.5
2016-Sep-19 09:33N 47°39' W 122°22'0 0.0
2016-Sep-19 07:33N 47°39' W 122°22'0 0.0
2016-Sep-19 06:33N 47°39' W 122°22'  
2016-Sep-16 17:33N 47°46' W 122°27'14 6.7
2016-Sep-16 15:29N 47°59' W 122°36'17 5.9
2016-Sep-16 12:33N 48°14' W 122°49'24 8.0
2016-Sep-16 09:33N 48°37' W 122°44'14 7.0
2016-Sep-16 07:31N 48°49' W 122°57'35 8.9
2016-Sep-16 03:33N 49°14' W 123°35'9 9.0
2016-Sep-16 02:33N 49°22' W 123°41'7 3.3
2016-Sep-16 00:33N 49°28' W 123°45'0 0.1
2016-Sep-15 22:33N 49°28' W 123°45'0 0.0
2016-Sep-15 21:33N 49°28' W 123°45'0 0.0
2016-Sep-15 20:33N 49°28' W 123°45'2 0.9
2016-Sep-15 18:34N 49°26' W 123°45'43 7.1
2016-Sep-15 12:32N 48°54' W 123°03'9 9.6
2016-Sep-15 11:33N 48°48' W 122°52'64 9.2
2016-Sep-15 04:33N 47°46' W 122°26'9 9.4
2016-Sep-15 03:33N 47°36' W 122°23'3 1.6
2016-Sep-15 01:33N 47°40' W 122°23'  
Track history (hours):
 
Tides and Currents Weather Stations Pressure Air Temp Water Temp Dewpoint Dewpoint Depression Visibility Wind Speed Wind Dir Waves Ship Positions

Ocean Navigator

Owner: OCEAN NAVIGATOR INC, SEATTLE, WA. More information available from US FCC via Universal Licensing System and Coast Guard Vessel Documentation Center.

Last reported at 2016-Sep-23 00:33 UTC. Time now 2016-Sep-26 05:26 UTC.
Position N 47°40' W 122°24'.

Type: Tug. MMSI: 366358000.

Date/timePositionNaut miles runAvg speedWind from/ knotsBaromVisibWave heightAir tempDewpointWater temp
2016-Sep-23 00:33N 47°40' W 122°24'2 1.5
2016-Sep-22 23:33N 47°41' W 122°25'13 4.5
2016-Sep-22 20:33N 47°52' W 122°37'0 0.0
2016-Sep-22 12:33N 47°52' W 122°37'0 0.0
2016-Sep-22 04:33N 47°52' W 122°37'0 0.0
2016-Sep-22 03:33N 47°52' W 122°37'0 0.0
2016-Sep-22 00:32N 47°52' W 122°37'0 0.0
2016-Sep-21 23:33N 47°52' W 122°37'0 0.0
2016-Sep-21 22:33N 47°52' W 122°37'0 0.0
2016-Sep-21 19:33N 47°52' W 122°37'0 0.0
2016-Sep-21 16:33N 47°52' W 122°37'0 0.0
2016-Sep-21 09:33N 47°52' W 122°37'0 0.0
2016-Sep-21 08:33N 47°52' W 122°37'0 0.0
2016-Sep-21 05:33N 47°52' W 122°37'0 0.0
2016-Sep-21 03:33N 47°52' W 122°37'0 0.0
2016-Sep-21 02:33N 47°52' W 122°37'0 0.0
2016-Sep-20 17:33N 47°52' W 122°37'0 0.0
2016-Sep-20 14:33N 47°52' W 122°37'0 0.0
2016-Sep-20 13:33N 47°52' W 122°37'0 0.0
2016-Sep-20 10:33N 47°52' W 122°37'0 0.0
2016-Sep-20 08:33N 47°52' W 122°37'0 0.0
2016-Sep-20 07:33N 47°52' W 122°37'0 0.0
2016-Sep-20 06:33N 47°52' W 122°37'0 0.0
2016-Sep-20 02:33N 47°52' W 122°37'0 0.0
2016-Sep-19 23:33N 47°52' W 122°37'0 0.0
2016-Sep-19 19:33N 47°52' W 122°37'0 0.2
2016-Sep-19 18:33N 47°51' W 122°38'0 0.1
2016-Sep-19 16:33N 47°52' W 122°37'1 0.4
2016-Sep-19 14:33N 47°52' W 122°37'5 5.4
2016-Sep-19 13:33N 47°57' W 122°32'1110.8
2016-Sep-19 12:33N 47°47' W 122°26'7 7.4
2016-Sep-19 11:33N 47°40' W 122°23'1 0.5
2016-Sep-19 09:33N 47°39' W 122°22'0 0.0
2016-Sep-19 07:33N 47°39' W 122°22'0 0.0
2016-Sep-19 06:33N 47°39' W 122°22'  
2016-Sep-16 17:33N 47°46' W 122°27'14 6.7
2016-Sep-16 15:29N 47°59' W 122°36'17 5.9
2016-Sep-16 12:33N 48°14' W 122°49'24 8.0
2016-Sep-16 09:33N 48°37' W 122°44'14 7.0
2016-Sep-16 07:31N 48°49' W 122°57'35 8.9
2016-Sep-16 03:33N 49°14' W 123°35'9 9.0
2016-Sep-16 02:33N 49°22' W 123°41'7 3.3
2016-Sep-16 00:33N 49°28' W 123°45'0 0.1
2016-Sep-15 22:33N 49°28' W 123°45'0 0.0
2016-Sep-15 21:33N 49°28' W 123°45'0 0.0
2016-Sep-15 20:33N 49°28' W 123°45'2 0.9
2016-Sep-15 18:34N 49°26' W 123°45'43 7.1
2016-Sep-15 12:32N 48°54' W 123°03'9 9.6
2016-Sep-15 11:33N 48°48' W 122°52'64 9.2
2016-Sep-15 04:33N 47°46' W 122°26'9 9.4
2016-Sep-15 03:33N 47°36' W 122°23'3 1.6
2016-Sep-15 01:33N 47°40' W 122°23'  

Dump ship's entire track history